createdAt,value
2023-04-13T00:00:39.668Z,46.73
2023-04-13T00:05:44.083Z,46.81
2023-04-13T00:10:48.750Z,46.96
2023-04-13T00:15:51.524Z,47.29
2023-04-13T00:20:55.661Z,47.43
2023-04-13T00:25:58.655Z,47.69
2023-04-13T00:31:01.884Z,47.90
2023-04-13T00:36:08.279Z,48.22
2023-04-13T00:41:11.028Z,48.13
2023-04-13T00:46:16.159Z,48.27
2023-04-13T00:51:21.499Z,48.50
2023-04-13T00:56:27.148Z,48.32
2023-04-13T01:01:30.541Z,48.64
2023-04-13T01:06:34.791Z,48.74
2023-04-13T01:11:40.433Z,48.76
2023-04-13T01:16:45.714Z,49.09
2023-04-13T01:21:54.343Z,48.81
2023-04-13T01:26:59.296Z,48.87
2023-04-13T01:32:03.410Z,48.93
2023-04-13T01:37:07.694Z,48.94
2023-04-13T01:42:11.194Z,49.07
2023-04-13T01:47:20.387Z,48.97
2023-04-13T01:52:37.756Z,49.24
2023-04-13T01:57:45.741Z,49.07
2023-04-13T02:02:50.208Z,49.44
2023-04-13T02:07:53.708Z,49.31
2023-04-13T02:12:56.582Z,49.92
2023-04-13T02:18:01.848Z,49.78
2023-04-13T02:23:04.729Z,49.77
2023-04-13T02:28:09.033Z,49.60
2023-04-13T02:33:13.989Z,50.04
2023-04-13T02:38:17.011Z,50.08
2023-04-13T02:43:26.320Z,50.02
2023-04-13T02:48:30.651Z,50.10
2023-04-13T02:53:33.495Z,49.97
2023-04-13T02:58:41.758Z,49.95
2023-04-13T03:03:52.365Z,50.07
2023-04-13T03:08:59.152Z,50.06
2023-04-13T03:14:03.168Z,50.16
2023-04-13T03:19:08.555Z,50.11
2023-04-13T03:24:12.632Z,50.65
2023-04-13T03:29:16.094Z,50.34
2023-04-13T03:34:22.865Z,50.68
2023-04-13T03:39:27.155Z,50.38
2023-04-13T03:44:30.754Z,50.25
2023-04-13T03:49:36.017Z,50.07
2023-04-13T03:54:40.115Z,50.13
2023-04-13T03:59:43.081Z,50.21
2023-04-13T04:04:50.961Z,50.25
2023-04-13T04:09:54.019Z,50.05
2023-04-13T04:14:59.873Z,50.12
2023-04-13T04:20:10.150Z,49.88
2023-04-13T04:25:12.970Z,49.72
2023-04-13T04:30:18.892Z,50.16
2023-04-13T04:35:26.049Z,50.14
2023-04-13T04:40:30.119Z,50.21
2023-04-13T04:45:36.126Z,50.18
2023-04-13T04:50:44.858Z,50.20
2023-04-13T04:55:51.355Z,49.82
2023-04-13T05:01:08.762Z,49.81
2023-04-13T05:06:13.233Z,49.74
2023-04-13T05:11:16.270Z,49.86
2023-04-13T05:16:19.416Z,49.83
2023-04-13T05:21:23.941Z,49.98
2023-04-13T05:26:33.086Z,49.58
2023-04-13T05:31:38.106Z,49.64
2023-04-13T05:36:42.471Z,49.59
2023-04-13T05:41:48.810Z,49.52
2023-04-13T05:46:52.637Z,49.64
2023-04-13T05:51:56.972Z,49.34
2023-04-13T05:57:10.485Z,49.20
2023-04-13T06:02:17.598Z,49.42
2023-04-13T06:07:22.286Z,49.10
2023-04-13T06:12:25.797Z,49.42
2023-04-13T06:17:28.863Z,49.61
2023-04-13T06:22:33.322Z,49.52
2023-04-13T06:27:36.243Z,49.31
2023-04-13T06:32:39.605Z,49.34
2023-04-13T06:37:44.721Z,49.01
2023-04-13T06:42:51.511Z,49.21
2023-04-13T06:48:29.831Z,49.52
2023-04-13T06:53:36.789Z,49.21
2023-04-13T06:58:40.277Z,37.91
2023-04-13T07:03:43.732Z,37.07
2023-04-13T07:08:48.139Z,37.41
2023-04-13T07:13:51.162Z,38.08
2023-04-13T07:18:54.237Z,39.58
2023-04-13T07:23:58.938Z,39.89
2023-04-13T07:29:01.785Z,39.91
2023-04-13T07:34:09.561Z,39.86
2023-04-13T07:39:19.984Z,40.04
2023-04-13T07:44:24.880Z,40.18
2023-04-13T07:49:28.652Z,40.63
2023-04-13T07:54:34.964Z,40.85
2023-04-13T07:59:38.291Z,40.68
2023-04-13T08:04:41.484Z,41.00
2023-04-13T08:09:48.624Z,41.19
2023-04-13T08:14:51.618Z,41.53
2023-04-13T08:19:54.485Z,41.59
2023-04-13T08:24:59.032Z,42.28
2023-04-13T08:30:07.482Z,42.80
2023-04-13T08:35:20.450Z,43.30
2023-04-13T08:40:24.893Z,43.96
2023-04-13T08:45:30.791Z,44.10
2023-04-13T08:50:33.891Z,44.16
2023-04-13T08:55:41.948Z,45.59
2023-04-13T09:00:47.333Z,46.20
2023-04-13T09:05:50.414Z,46.87
2023-04-13T09:10:55.591Z,47.62
2023-04-13T09:15:58.531Z,47.62
2023-04-13T09:21:24.211Z,48.29
2023-04-13T09:26:28.551Z,47.77
2023-04-13T09:31:34.570Z,47.59
2023-04-13T09:36:46.275Z,39.26
2023-04-13T09:41:57.966Z,45.46
2023-04-13T09:47:01.178Z,45.74
2023-04-13T09:52:06.645Z,45.85
2023-04-13T09:57:10.989Z,45.84
2023-04-13T10:02:13.883Z,45.95
2023-04-13T10:07:16.708Z,45.96
2023-04-13T10:12:20.817Z,45.90
2023-04-13T10:17:28.883Z,45.69
2023-04-13T10:22:31.821Z,45.77
2023-04-13T10:27:36.474Z,45.60
2023-04-13T10:32:39.340Z,45.78
2023-04-13T10:37:44.474Z,45.90
2023-04-13T10:42:52.841Z,46.23
2023-04-13T10:47:58.376Z,45.92
2023-04-13T10:53:03.050Z,46.08
2023-04-13T10:58:16.907Z,46.00
2023-04-13T11:03:20.051Z,45.81
2023-04-13T11:08:22.870Z,45.76
2023-04-13T11:13:28.956Z,45.59
2023-04-13T11:18:31.895Z,45.30
2023-04-13T11:23:35.961Z,45.23
2023-04-13T11:28:41.063Z,44.91
2023-04-13T11:33:44.583Z,44.56
2023-04-13T11:38:48.267Z,44.14
2023-04-13T11:43:52.404Z,43.94
2023-04-13T11:48:55.684Z,44.09
2023-04-13T11:53:58.471Z,43.96
2023-04-13T11:59:02.769Z,43.84
2023-04-13T12:04:15.101Z,43.79
2023-04-13T12:09:21.063Z,43.82
2023-04-13T12:19:32.996Z,34.21
2023-04-13T12:24:38.300Z,34.52
2023-04-13T12:29:42.781Z,34.29
2023-04-13T12:34:45.658Z,36.79
2023-04-13T12:39:48.517Z,37.81
2023-04-13T12:44:52.713Z,39.88
2023-04-13T12:49:56.304Z,41.08
2023-04-13T12:54:59.854Z,42.01
2023-04-13T13:00:08.886Z,42.51
2023-04-13T13:05:11.940Z,43.08
2023-04-13T13:10:28.935Z,42.89
2023-04-13T13:15:33.967Z,42.43
2023-04-13T13:20:41.181Z,42.47
2023-04-13T13:25:57.107Z,42.41
2023-04-13T13:31:09.216Z,42.48
2023-04-13T13:36:13.756Z,42.32
2023-04-13T13:41:17.131Z,42.54
2023-04-13T13:46:21.449Z,42.73
2023-04-13T13:51:24.864Z,42.27
2023-04-13T13:56:28.017Z,42.12
2023-04-13T14:01:32.788Z,42.26
2023-04-13T14:06:35.692Z,42.28
2023-04-13T14:11:38.472Z,42.29
2023-04-13T14:16:42.577Z,42.06
2023-04-13T14:21:45.502Z,41.54
2023-04-13T14:26:48.514Z,41.33
2023-04-13T14:31:53.644Z,40.83
2023-04-13T14:36:56.499Z,40.96
2023-04-13T14:41:59.289Z,41.20
2023-04-13T14:47:05.938Z,40.66
2023-04-13T14:52:11.402Z,40.61
2023-04-13T14:57:14.510Z,40.84
2023-04-13T15:02:19.134Z,41.30
2023-04-13T15:07:29.937Z,41.46
2023-04-13T15:12:32.973Z,41.71
2023-04-13T15:17:37.231Z,41.63
2023-04-13T15:22:41.287Z,41.41
2023-04-13T15:27:44.111Z,41.04
2023-04-13T15:32:48.553Z,41.41
2023-04-13T15:37:52.085Z,41.68
2023-04-13T15:42:54.831Z,41.84
2023-04-13T15:47:59.220Z,42.19
2023-04-13T15:53:02.077Z,42.36
2023-04-13T15:58:05.033Z,42.96
2023-04-13T16:03:09.686Z,44.16
2023-04-13T16:08:12.597Z,44.55
2023-04-13T16:13:19.672Z,45.11
2023-04-13T16:18:26.129Z,45.16
2023-04-13T16:23:29.150Z,44.47
2023-04-13T16:28:32.046Z,44.94
2023-04-13T16:33:36.232Z,44.85
2023-04-13T16:38:39.920Z,44.30
2023-04-13T16:43:42.742Z,44.40
2023-04-13T16:48:47.543Z,44.60
2023-04-13T16:53:50.397Z,45.43
2023-04-13T16:58:53.355Z,45.62
2023-04-13T17:03:57.647Z,46.05
2023-04-13T17:09:00.569Z,45.92
2023-04-13T17:14:03.495Z,46.43
2023-04-13T17:19:07.824Z,46.37
2023-04-13T17:24:10.858Z,46.51
2023-04-13T17:29:13.743Z,46.71
2023-04-13T17:34:17.912Z,46.83
2023-04-13T17:39:20.856Z,46.91
2023-04-13T17:44:23.629Z,38.02
2023-04-13T17:49:28.165Z,45.87
2023-04-13T17:54:30.959Z,46.27
2023-04-13T17:59:33.855Z,46.67
2023-04-13T18:04:38.097Z,47.19
2023-04-13T18:09:40.941Z,47.21
2023-04-13T18:14:43.672Z,47.31
2023-04-13T18:19:48.846Z,46.96
2023-04-13T18:24:51.685Z,47.02
2023-04-13T18:29:55.378Z,46.78
2023-04-13T18:34:59.569Z,46.75
2023-04-13T18:40:04.371Z,46.42
2023-04-13T18:45:08.180Z,46.64
2023-04-13T18:50:13.295Z,46.49
2023-04-13T18:55:16.536Z,46.58
2023-04-13T19:00:19.958Z,46.22
2023-04-13T19:05:24.460Z,46.16
2023-04-13T19:10:27.995Z,46.30
2023-04-13T19:15:31.841Z,46.34
2023-04-13T19:20:35.936Z,46.28
2023-04-13T19:25:38.729Z,46.33
2023-04-13T19:30:41.704Z,46.25
2023-04-13T19:35:46.148Z,45.97
2023-04-13T19:40:48.975Z,46.07
2023-04-13T19:45:52.010Z,45.95
2023-04-13T19:50:56.398Z,46.15
2023-04-13T19:55:59.127Z,46.14
2023-04-13T20:01:02.165Z,46.04
2023-04-13T20:06:06.495Z,46.14
2023-04-13T20:11:09.334Z,46.03
2023-04-13T20:16:12.303Z,46.14
2023-04-13T20:21:18.257Z,45.75
2023-04-13T20:26:22.471Z,46.17
2023-04-13T20:31:25.439Z,46.20
2023-04-13T20:36:30.244Z,45.97
2023-04-13T20:41:34.812Z,46.07
2023-04-13T20:46:41.931Z,46.13
2023-04-13T20:51:46.947Z,46.19
2023-04-13T20:56:49.863Z,46.08
2023-04-13T21:01:52.789Z,45.95
2023-04-13T21:06:57.100Z,46.09
2023-04-13T21:11:59.842Z,46.22
2023-04-13T21:17:02.584Z,45.95
2023-04-13T21:22:06.818Z,46.13
2023-04-13T21:27:09.540Z,46.17
2023-04-13T21:32:13.435Z,46.11
2023-04-13T21:37:17.571Z,45.99
2023-04-13T21:42:22.529Z,45.94
2023-04-13T21:47:25.634Z,46.27
2023-04-13T21:52:30.049Z,46.02
2023-04-13T21:57:33.061Z,46.10
2023-04-13T22:02:36.085Z,45.97
2023-04-13T22:07:43.279Z,46.06
2023-04-13T22:12:47.017Z,46.16
2023-04-13T22:17:49.872Z,46.19
2023-04-13T22:22:54.011Z,46.17
2023-04-13T22:27:56.996Z,46.20
2023-04-13T22:32:59.859Z,46.31
2023-04-13T22:38:04.608Z,46.14
2023-04-13T22:43:07.424Z,46.49
2023-04-13T22:48:10.409Z,46.54
2023-04-13T22:53:14.508Z,46.53
2023-04-13T22:58:17.290Z,46.66
2023-04-13T23:03:20.209Z,46.74
2023-04-13T23:08:24.472Z,47.03
2023-04-13T23:13:27.265Z,47.37
2023-04-13T23:18:30.079Z,47.52
2023-04-13T23:23:34.249Z,47.59
2023-04-13T23:28:37.038Z,47.68
2023-04-13T23:33:39.816Z,47.69
2023-04-13T23:38:43.929Z,47.96
2023-04-13T23:43:47.061Z,48.18
2023-04-13T23:48:49.903Z,48.25
2023-04-13T23:53:54.044Z,48.50
2023-04-13T23:58:56.802Z,48.55
